sensor_id;sensor_type;location;lat;lon;timestamp;P1;durP1;ratioP1;P2;durP2;ratioP2
73632;SDS011;61927;50.080;14.418;2022-08-21T00:02:26;12.43;;;9.65;;
73632;SDS011;61927;50.080;14.418;2022-08-21T00:04:52;13.52;;;10.27;;
73632;SDS011;61927;50.080;14.418;2022-08-21T00:07:18;11.43;;;9.70;;
73632;SDS011;61927;50.080;14.418;2022-08-21T00:09:45;13.65;;;10.30;;
73632;SDS011;61927;50.080;14.418;2022-08-21T00:12:10;13.27;;;9.52;;
73632;SDS011;61927;50.080;14.418;2022-08-21T00:14:36;13.55;;;8.43;;
73632;SDS011;61927;50.080;14.418;2022-08-21T00:17:02;12.40;;;9.50;;
73632;SDS011;61927;50.080;14.418;2022-08-21T00:19:29;12.38;;;9.05;;
73632;SDS011;61927;50.080;14.418;2022-08-21T00:21:55;11.70;;;8.57;;
73632;SDS011;61927;50.080;14.418;2022-08-21T00:24:22;13.85;;;9.85;;
73632;SDS011;61927;50.080;14.418;2022-08-21T00:26:48;13.48;;;9.45;;
73632;SDS011;61927;50.080;14.418;2022-08-21T00:29:15;10.77;;;8.85;;
73632;SDS011;61927;50.080;14.418;2022-08-21T00:31:41;12.13;;;10.38;;
73632;SDS011;61927;50.080;14.418;2022-08-21T00:34:08;12.80;;;9.48;;
73632;SDS011;61927;50.080;14.418;2022-08-21T00:36:34;12.70;;;9.90;;
73632;SDS011;61927;50.080;14.418;2022-08-21T00:39:00;14.88;;;9.73;;
73632;SDS011;61927;50.080;14.418;2022-08-21T00:41:26;10.57;;;9.48;;
73632;SDS011;61927;50.080;14.418;2022-08-21T00:43:52;12.70;;;8.85;;
73632;SDS011;61927;50.080;14.418;2022-08-21T00:46:19;13.38;;;9.30;;
73632;SDS011;61927;50.080;14.418;2022-08-21T00:48:45;12.63;;;8.93;;
73632;SDS011;61927;50.080;14.418;2022-08-21T00:51:12;10.95;;;8.50;;
73632;SDS011;61927;50.080;14.418;2022-08-21T00:53:47;16.98;;;8.70;;
73632;SDS011;61927;50.080;14.418;2022-08-21T00:56:16;17.27;;;8.77;;
73632;SDS011;61927;50.080;14.418;2022-08-21T00:58:42;11.35;;;9.18;;
73632;SDS011;61927;50.080;14.418;2022-08-21T01:01:08;11.02;;;9.27;;
73632;SDS011;61927;50.080;14.418;2022-08-21T01:03:34;13.30;;;9.25;;
73632;SDS011;61927;50.080;14.418;2022-08-21T01:06:00;13.98;;;9.98;;
73632;SDS011;61927;50.080;14.418;2022-08-21T01:08:26;14.70;;;9.60;;
73632;SDS011;61927;50.080;14.418;2022-08-21T01:10:54;14.52;;;9.57;;
73632;SDS011;61927;50.080;14.418;2022-08-21T01:13:20;17.58;;;9.45;;
73632;SDS011;61927;50.080;14.418;2022-08-21T01:15:50;11.05;;;8.77;;
73632;SDS011;61927;50.080;14.418;2022-08-21T01:18:18;11.98;;;9.38;;
73632;SDS011;61927;50.080;14.418;2022-08-21T01:20:55;14.55;;;9.25;;
73632;SDS011;61927;50.080;14.418;2022-08-21T01:23:24;14.15;;;9.35;;
73632;SDS011;61927;50.080;14.418;2022-08-21T01:25:49;13.55;;;9.02;;
73632;SDS011;61927;50.080;14.418;2022-08-21T01:28:14;12.70;;;9.07;;
73632;SDS011;61927;50.080;14.418;2022-08-21T01:30:41;12.50;;;9.48;;
73632;SDS011;61927;50.080;14.418;2022-08-21T01:33:08;12.80;;;9.00;;
73632;SDS011;61927;50.080;14.418;2022-08-21T01:35:34;12.70;;;9.20;;
73632;SDS011;61927;50.080;14.418;2022-08-21T01:38:00;14.27;;;8.30;;
73632;SDS011;61927;50.080;14.418;2022-08-21T01:40:26;10.13;;;9.00;;
73632;SDS011;61927;50.080;14.418;2022-08-21T01:42:52;12.25;;;9.38;;
73632;SDS011;61927;50.080;14.418;2022-08-21T01:45:18;11.57;;;9.60;;
73632;SDS011;61927;50.080;14.418;2022-08-21T01:47:44;11.07;;;9.75;;
73632;SDS011;61927;50.080;14.418;2022-08-21T01:50:12;13.00;;;9.38;;
73632;SDS011;61927;50.080;14.418;2022-08-21T01:52:42;13.90;;;10.43;;
73632;SDS011;61927;50.080;14.418;2022-08-21T01:55:09;13.13;;;9.60;;
73632;SDS011;61927;50.080;14.418;2022-08-21T01:57:36;15.50;;;10.40;;
73632;SDS011;61927;50.080;14.418;2022-08-21T02:00:04;13.60;;;9.98;;
73632;SDS011;61927;50.080;14.418;2022-08-21T02:02:33;14.20;;;10.30;;
73632;SDS011;61927;50.080;14.418;2022-08-21T02:04:59;11.07;;;9.30;;
73632;SDS011;61927;50.080;14.418;2022-08-21T02:07:25;12.63;;;9.98;;
73632;SDS011;61927;50.080;14.418;2022-08-21T02:09:50;11.82;;;10.35;;
73632;SDS011;61927;50.080;14.418;2022-08-21T02:12:16;14.32;;;10.18;;
73632;SDS011;61927;50.080;14.418;2022-08-21T02:14:41;14.27;;;10.50;;
73632;SDS011;61927;50.080;14.418;2022-08-21T02:17:07;17.58;;;10.73;;
73632;SDS011;61927;50.080;14.418;2022-08-21T02:19:32;12.43;;;9.85;;
73632;SDS011;61927;50.080;14.418;2022-08-21T02:21:58;14.75;;;10.30;;
73632;SDS011;61927;50.080;14.418;2022-08-21T02:24:23;12.85;;;10.43;;
73632;SDS011;61927;50.080;14.418;2022-08-21T02:26:49;16.45;;;11.38;;
73632;SDS011;61927;50.080;14.418;2022-08-21T02:29:14;14.45;;;10.45;;
73632;SDS011;61927;50.080;14.418;2022-08-21T02:31:40;13.93;;;10.50;;
73632;SDS011;61927;50.080;14.418;2022-08-21T02:34:06;15.57;;;10.38;;
73632;SDS011;61927;50.080;14.418;2022-08-21T02:36:32;13.52;;;10.15;;
73632;SDS011;61927;50.080;14.418;2022-08-21T02:38:57;14.20;;;11.02;;
73632;SDS011;61927;50.080;14.418;2022-08-21T02:41:23;15.57;;;10.50;;
73632;SDS011;61927;50.080;14.418;2022-08-21T02:43:49;17.08;;;11.82;;
73632;SDS011;61927;50.080;14.418;2022-08-21T02:46:15;16.00;;;11.30;;
73632;SDS011;61927;50.080;14.418;2022-08-21T02:48:43;15.07;;;11.82;;
73632;SDS011;61927;50.080;14.418;2022-08-21T02:51:10;15.38;;;11.38;;
73632;SDS011;61927;50.080;14.418;2022-08-21T02:53:41;13.82;;;10.35;;
73632;SDS011;61927;50.080;14.418;2022-08-21T02:56:08;16.30;;;11.68;;
73632;SDS011;61927;50.080;14.418;2022-08-21T02:58:37;16.70;;;11.38;;
73632;SDS011;61927;50.080;14.418;2022-08-21T03:01:05;15.10;;;11.40;;
73632;SDS011;61927;50.080;14.418;2022-08-21T03:03:34;16.45;;;11.25;;
73632;SDS011;61927;50.080;14.418;2022-08-21T03:06:03;20.42;;;12.68;;
73632;SDS011;61927;50.080;14.418;2022-08-21T03:08:29;17.73;;;11.70;;
73632;SDS011;61927;50.080;14.418;2022-08-21T03:10:55;15.57;;;11.30;;
73632;SDS011;61927;50.080;14.418;2022-08-21T03:13:21;23.58;;;12.77;;
73632;SDS011;61927;50.080;14.418;2022-08-21T03:15:47;18.35;;;12.60;;
73632;SDS011;61927;50.080;14.418;2022-08-21T03:18:14;19.02;;;12.00;;
73632;SDS011;61927;50.080;14.418;2022-08-21T03:20:41;15.82;;;11.65;;
73632;SDS011;61927;50.080;14.418;2022-08-21T03:23:07;17.63;;;11.75;;
73632;SDS011;61927;50.080;14.418;2022-08-21T03:25:34;16.27;;;11.95;;
73632;SDS011;61927;50.080;14.418;2022-08-21T03:28:01;17.50;;;12.70;;
73632;SDS011;61927;50.080;14.418;2022-08-21T03:30:28;15.45;;;11.73;;
73632;SDS011;61927;50.080;14.418;2022-08-21T03:32:56;17.83;;;12.43;;
73632;SDS011;61927;50.080;14.418;2022-08-21T03:35:24;17.15;;;12.60;;
73632;SDS011;61927;50.080;14.418;2022-08-21T03:37:51;13.73;;;11.27;;
73632;SDS011;61927;50.080;14.418;2022-08-21T03:40:17;15.82;;;10.82;;
73632;SDS011;61927;50.080;14.418;2022-08-21T03:42:44;15.02;;;11.82;;
73632;SDS011;61927;50.080;14.418;2022-08-21T03:45:12;14.98;;;10.38;;
73632;SDS011;61927;50.080;14.418;2022-08-21T03:47:53;15.30;;;10.30;;
73632;SDS011;61927;50.080;14.418;2022-08-21T03:50:21;11.38;;;9.65;;
73632;SDS011;61927;50.080;14.418;2022-08-21T03:52:48;14.25;;;9.02;;
73632;SDS011;61927;50.080;14.418;2022-08-21T03:55:13;14.98;;;9.98;;
73632;SDS011;61927;50.080;14.418;2022-08-21T03:57:39;11.88;;;9.07;;
73632;SDS011;61927;50.080;14.418;2022-08-21T04:00:05;8.27;;;7.47;;
73632;SDS011;61927;50.080;14.418;2022-08-21T04:02:33;9.82;;;8.35;;
73632;SDS011;61927;50.080;14.418;2022-08-21T04:04:59;9.80;;;7.60;;
73632;SDS011;61927;50.080;14.418;2022-08-21T04:07:25;9.70;;;7.97;;
73632;SDS011;61927;50.080;14.418;2022-08-21T04:09:50;8.27;;;7.30;;
73632;SDS011;61927;50.080;14.418;2022-08-21T04:12:16;8.43;;;7.10;;
73632;SDS011;61927;50.080;14.418;2022-08-21T04:14:41;8.73;;;7.10;;
73632;SDS011;61927;50.080;14.418;2022-08-21T04:17:07;8.25;;;6.80;;
73632;SDS011;61927;50.080;14.418;2022-08-21T04:19:32;10.98;;;6.68;;
73632;SDS011;61927;50.080;14.418;2022-08-21T04:21:58;7.25;;;6.43;;
73632;SDS011;61927;50.080;14.418;2022-08-21T04:24:23;8.13;;;6.55;;
73632;SDS011;61927;50.080;14.418;2022-08-21T04:26:49;6.90;;;6.25;;
73632;SDS011;61927;50.080;14.418;2022-08-21T04:29:15;8.93;;;7.07;;
73632;SDS011;61927;50.080;14.418;2022-08-21T04:31:40;8.35;;;6.07;;
73632;SDS011;61927;50.080;14.418;2022-08-21T04:34:06;7.30;;;6.38;;
73632;SDS011;61927;50.080;14.418;2022-08-21T04:36:32;7.88;;;7.07;;
73632;SDS011;61927;50.080;14.418;2022-08-21T04:38:57;8.20;;;6.93;;
73632;SDS011;61927;50.080;14.418;2022-08-21T04:41:24;7.03;;;6.30;;
73632;SDS011;61927;50.080;14.418;2022-08-21T04:43:49;7.90;;;7.07;;
73632;SDS011;61927;50.080;14.418;2022-08-21T04:46:15;7.70;;;6.90;;
73632;SDS011;61927;50.080;14.418;2022-08-21T04:48:41;7.75;;;6.57;;
73632;SDS011;61927;50.080;14.418;2022-08-21T04:51:07;7.60;;;6.80;;
73632;SDS011;61927;50.080;14.418;2022-08-21T04:56:20;6.88;;;5.80;;
73632;SDS011;61927;50.080;14.418;2022-08-21T04:59:13;12.20;;;5.82;;
73632;SDS011;61927;50.080;14.418;2022-08-21T05:01:49;7.95;;;5.53;;
73632;SDS011;61927;50.080;14.418;2022-08-21T05:04:18;8.20;;;5.65;;
73632;SDS011;61927;50.080;14.418;2022-08-21T05:06:48;6.60;;;5.68;;
73632;SDS011;61927;50.080;14.418;2022-08-21T05:09:16;10.57;;;6.07;;
73632;SDS011;61927;50.080;14.418;2022-08-21T05:11:43;6.00;;;5.40;;
73632;SDS011;61927;50.080;14.418;2022-08-21T05:14:09;7.47;;;5.78;;
73632;SDS011;61927;50.080;14.418;2022-08-21T05:16:36;7.18;;;5.53;;
73632;SDS011;61927;50.080;14.418;2022-08-21T05:19:03;8.20;;;6.13;;
73632;SDS011;61927;50.080;14.418;2022-08-21T05:21:32;7.72;;;5.57;;
73632;SDS011;61927;50.080;14.418;2022-08-21T05:23:59;6.50;;;5.85;;
73632;SDS011;61927;50.080;14.418;2022-08-21T05:26:24;6.10;;;5.50;;
73632;SDS011;61927;50.080;14.418;2022-08-21T05:28:50;7.03;;;6.13;;
73632;SDS011;61927;50.080;14.418;2022-08-21T05:31:16;7.70;;;6.10;;
73632;SDS011;61927;50.080;14.418;2022-08-21T05:33:41;7.10;;;5.60;;
73632;SDS011;61927;50.080;14.418;2022-08-21T05:36:07;6.05;;;5.25;;
73632;SDS011;61927;50.080;14.418;2022-08-21T05:38:32;6.57;;;5.65;;
73632;SDS011;61927;50.080;14.418;2022-08-21T05:40:58;5.80;;;5.30;;
73632;SDS011;61927;50.080;14.418;2022-08-21T05:43:23;9.10;;;5.68;;
73632;SDS011;61927;50.080;14.418;2022-08-21T05:45:49;5.82;;;5.22;;
73632;SDS011;61927;50.080;14.418;2022-08-21T05:48:16;5.75;;;5.25;;
73632;SDS011;61927;50.080;14.418;2022-08-21T05:50:44;4.88;;;4.47;;
73632;SDS011;61927;50.080;14.418;2022-08-21T05:53:11;5.20;;;4.70;;
73632;SDS011;61927;50.080;14.418;2022-08-21T05:55:38;5.28;;;4.80;;
73632;SDS011;61927;50.080;14.418;2022-08-21T05:58:04;5.28;;;4.78;;
73632;SDS011;61927;50.080;14.418;2022-08-21T06:00:30;5.82;;;4.65;;
73632;SDS011;61927;50.080;14.418;2022-08-21T06:02:56;4.32;;;4.03;;
73632;SDS011;61927;50.080;14.418;2022-08-21T06:05:22;6.70;;;4.68;;
73632;SDS011;61927;50.080;14.418;2022-08-21T06:07:47;4.95;;;4.45;;
73632;SDS011;61927;50.080;14.418;2022-08-21T06:10:13;5.43;;;4.30;;
73632;SDS011;61927;50.080;14.418;2022-08-21T06:12:38;4.28;;;3.78;;
73632;SDS011;61927;50.080;14.418;2022-08-21T06:15:04;4.45;;;4.03;;
73632;SDS011;61927;50.080;14.418;2022-08-21T06:17:30;4.78;;;4.35;;
73632;SDS011;61927;50.080;14.418;2022-08-21T06:19:55;4.47;;;4.00;;
73632;SDS011;61927;50.080;14.418;2022-08-21T06:22:21;4.20;;;3.80;;
73632;SDS011;61927;50.080;14.418;2022-08-21T06:24:47;3.83;;;3.53;;
73632;SDS011;61927;50.080;14.418;2022-08-21T06:27:12;3.92;;;3.63;;
73632;SDS011;61927;50.080;14.418;2022-08-21T06:29:39;3.58;;;3.33;;
73632;SDS011;61927;50.080;14.418;2022-08-21T06:32:05;4.40;;;3.67;;
73632;SDS011;61927;50.080;14.418;2022-08-21T06:34:37;3.80;;;3.50;;
73632;SDS011;61927;50.080;14.418;2022-08-21T06:37:04;5.15;;;3.60;;
73632;SDS011;61927;50.080;14.418;2022-08-21T06:39:30;3.78;;;3.40;;
73632;SDS011;61927;50.080;14.418;2022-08-21T06:41:56;6.45;;;3.83;;
73632;SDS011;61927;50.080;14.418;2022-08-21T06:44:22;4.40;;;3.88;;
73632;SDS011;61927;50.080;14.418;2022-08-21T06:46:47;4.65;;;3.92;;
73632;SDS011;61927;50.080;14.418;2022-08-21T06:49:13;4.55;;;3.70;;
73632;SDS011;61927;50.080;14.418;2022-08-21T06:51:39;9.18;;;4.10;;
73632;SDS011;61927;50.080;14.418;2022-08-21T06:54:05;4.03;;;3.58;;
73632;SDS011;61927;50.080;14.418;2022-08-21T06:56:30;3.60;;;3.30;;
73632;SDS011;61927;50.080;14.418;2022-08-21T06:58:58;4.00;;;3.60;;
73632;SDS011;61927;50.080;14.418;2022-08-21T07:01:25;3.65;;;3.35;;
73632;SDS011;61927;50.080;14.418;2022-08-21T07:03:51;10.70;;;3.50;;
73632;SDS011;61927;50.080;14.418;2022-08-21T07:06:17;3.40;;;3.10;;
73632;SDS011;61927;50.080;14.418;2022-08-21T07:08:43;6.25;;;3.20;;
73632;SDS011;61927;50.080;14.418;2022-08-21T07:11:10;5.72;;;3.47;;
73632;SDS011;61927;50.080;14.418;2022-08-21T07:13:39;3.70;;;3.40;;
73632;SDS011;61927;50.080;14.418;2022-08-21T07:16:05;5.30;;;3.55;;
73632;SDS011;61927;50.080;14.418;2022-08-21T07:18:31;3.22;;;3.00;;
73632;SDS011;61927;50.080;14.418;2022-08-21T07:20:57;10.27;;;8.10;;
73632;SDS011;61927;50.080;14.418;2022-08-21T07:23:24;5.30;;;3.20;;
73632;SDS011;61927;50.080;14.418;2022-08-21T07:25:54;3.33;;;3.03;;
73632;SDS011;61927;50.080;14.418;2022-08-21T07:28:20;3.25;;;3.00;;
73632;SDS011;61927;50.080;14.418;2022-08-21T07:30:46;3.22;;;2.92;;
73632;SDS011;61927;50.080;14.418;2022-08-21T07:33:15;3.97;;;2.88;;
73632;SDS011;61927;50.080;14.418;2022-08-21T07:35:41;4.20;;;3.80;;
73632;SDS011;61927;50.080;14.418;2022-08-21T07:38:07;3.65;;;3.35;;
73632;SDS011;61927;50.080;14.418;2022-08-21T07:40:32;3.20;;;2.88;;
73632;SDS011;61927;50.080;14.418;2022-08-21T07:42:58;8.63;;;2.90;;
73632;SDS011;61927;50.080;14.418;2022-08-21T07:45:23;2.65;;;2.47;;
73632;SDS011;61927;50.080;14.418;2022-08-21T07:47:52;5.70;;;2.70;;
73632;SDS011;61927;50.080;14.418;2022-08-21T07:50:18;2.47;;;2.28;;
73632;SDS011;61927;50.080;14.418;2022-08-21T07:52:44;3.75;;;2.58;;
73632;SDS011;61927;50.080;14.418;2022-08-21T07:55:10;2.60;;;2.50;;
73632;SDS011;61927;50.080;14.418;2022-08-21T07:57:39;2.85;;;2.53;;
73632;SDS011;61927;50.080;14.418;2022-08-21T08:00:06;16.10;;;11.07;;
73632;SDS011;61927;50.080;14.418;2022-08-21T08:02:35;3.80;;;3.08;;
73632;SDS011;61927;50.080;14.418;2022-08-21T08:05:02;3.35;;;2.47;;
73632;SDS011;61927;50.080;14.418;2022-08-21T08:07:29;4.82;;;3.05;;
73632;SDS011;61927;50.080;14.418;2022-08-21T08:09:55;3.05;;;2.10;;
73632;SDS011;61927;50.080;14.418;2022-08-21T08:12:21;3.33;;;2.85;;
73632;SDS011;61927;50.080;14.418;2022-08-21T08:14:46;2.72;;;2.50;;
73632;SDS011;61927;50.080;14.418;2022-08-21T08:17:12;2.92;;;2.70;;
73632;SDS011;61927;50.080;14.418;2022-08-21T08:19:38;2.55;;;2.35;;
73632;SDS011;61927;50.080;14.418;2022-08-21T08:22:25;3.40;;;3.15;;
73632;SDS011;61927;50.080;14.418;2022-08-21T08:24:51;5.30;;;2.58;;
73632;SDS011;61927;50.080;14.418;2022-08-21T08:27:17;3.55;;;3.03;;
73632;SDS011;61927;50.080;14.418;2022-08-21T08:29:43;2.65;;;2.22;;
73632;SDS011;61927;50.080;14.418;2022-08-21T08:32:10;3.63;;;2.10;;
73632;SDS011;61927;50.080;14.418;2022-08-21T08:34:36;3.13;;;2.45;;
73632;SDS011;61927;50.080;14.418;2022-08-21T08:37:03;4.47;;;2.50;;
73632;SDS011;61927;50.080;14.418;2022-08-21T08:39:30;2.72;;;2.30;;
73632;SDS011;61927;50.080;14.418;2022-08-21T08:42:01;3.65;;;2.67;;
73632;SDS011;61927;50.080;14.418;2022-08-21T08:44:32;2.60;;;2.40;;
73632;SDS011;61927;50.080;14.418;2022-08-21T08:46:59;4.28;;;2.72;;
73632;SDS011;61927;50.080;14.418;2022-08-21T08:49:31;3.08;;;2.60;;
73632;SDS011;61927;50.080;14.418;2022-08-21T08:52:17;3.05;;;2.20;;
73632;SDS011;61927;50.080;14.418;2022-08-21T08:55:05;2.80;;;2.60;;
73632;SDS011;61927;50.080;14.418;2022-08-21T08:57:34;2.72;;;2.53;;
73632;SDS011;61927;50.080;14.418;2022-08-21T09:00:04;2.40;;;1.95;;
73632;SDS011;61927;50.080;14.418;2022-08-21T09:02:34;3.58;;;2.25;;
73632;SDS011;61927;50.080;14.418;2022-08-21T09:05:00;5.40;;;3.05;;
73632;SDS011;61927;50.080;14.418;2022-08-21T09:10:18;5.43;;;2.55;;
73632;SDS011;61927;50.080;14.418;2022-08-21T09:18:16;3.40;;;2.40;;
73632;SDS011;61927;50.080;14.418;2022-08-21T09:26:07;5.95;;;2.80;;
73632;SDS011;61927;50.080;14.418;2022-08-21T09:28:43;3.75;;;3.28;;
73632;SDS011;61927;50.080;14.418;2022-08-21T09:31:43;3.33;;;2.35;;
73632;SDS011;61927;50.080;14.418;2022-08-21T09:34:05;6.20;;;3.08;;
73632;SDS011;61927;50.080;14.418;2022-08-21T09:36:44;3.60;;;2.55;;
73632;SDS011;61927;50.080;14.418;2022-08-21T09:39:22;2.90;;;2.42;;
73632;SDS011;61927;50.080;14.418;2022-08-21T09:41:57;4.72;;;2.67;;
73632;SDS011;61927;50.080;14.418;2022-08-21T09:44:26;10.25;;;3.65;;
73632;SDS011;61927;50.080;14.418;2022-08-21T09:46:53;4.63;;;2.97;;
73632;SDS011;61927;50.080;14.418;2022-08-21T09:49:29;7.07;;;3.78;;
73632;SDS011;61927;50.080;14.418;2022-08-21T09:51:57;7.22;;;2.58;;
73632;SDS011;61927;50.080;14.418;2022-08-21T09:54:26;10.25;;;2.95;;
73632;SDS011;61927;50.080;14.418;2022-08-21T09:56:56;6.13;;;2.67;;
73632;SDS011;61927;50.080;14.418;2022-08-21T09:59:44;4.05;;;2.45;;
73632;SDS011;61927;50.080;14.418;2022-08-21T10:02:31;3.55;;;2.40;;
73632;SDS011;61927;50.080;14.418;2022-08-21T10:05:08;9.68;;;4.00;;
73632;SDS011;61927;50.080;14.418;2022-08-21T10:07:42;9.50;;;2.75;;
73632;SDS011;61927;50.080;14.418;2022-08-21T10:15:20;10.80;;;2.53;;
73632;SDS011;61927;50.080;14.418;2022-08-21T10:18:18;15.45;;;6.28;;
73632;SDS011;61927;50.080;14.418;2022-08-21T10:20:52;15.98;;;4.95;;
73632;SDS011;61927;50.080;14.418;2022-08-21T10:26:35;5.10;;;2.53;;
73632;SDS011;61927;50.080;14.418;2022-08-21T10:29:28;5.13;;;2.30;;
73632;SDS011;61927;50.080;14.418;2022-08-21T10:34:55;5.78;;;2.92;;
73632;SDS011;61927;50.080;14.418;2022-08-21T10:40:29;11.90;;;3.60;;
73632;SDS011;61927;50.080;14.418;2022-08-21T10:48:47;7.95;;;2.95;;
73632;SDS011;61927;50.080;14.418;2022-08-21T10:54:12;8.63;;;2.55;;
73632;SDS011;61927;50.080;14.418;2022-08-21T10:56:44;4.18;;;2.38;;
73632;SDS011;61927;50.080;14.418;2022-08-21T11:04:30;4.32;;;2.90;;
73632;SDS011;61927;50.080;14.418;2022-08-21T11:07:03;4.78;;;2.40;;
73632;SDS011;61927;50.080;14.418;2022-08-21T11:09:58;6.75;;;2.72;;
73632;SDS011;61927;50.080;14.418;2022-08-21T11:15:12;7.28;;;2.28;;
73632;SDS011;61927;50.080;14.418;2022-08-21T11:18:02;6.68;;;3.38;;
73632;SDS011;61927;50.080;14.418;2022-08-21T11:23:46;5.82;;;2.45;;
73632;SDS011;61927;50.080;14.418;2022-08-21T11:29:24;3.80;;;2.50;;
73632;SDS011;61927;50.080;14.418;2022-08-21T11:49:29;7.75;;;2.83;;
73632;SDS011;61927;50.080;14.418;2022-08-21T11:54:58;10.27;;;3.13;;
73632;SDS011;61927;50.080;14.418;2022-08-21T11:57:42;12.00;;;3.33;;
73632;SDS011;61927;50.080;14.418;2022-08-21T12:00:41;5.80;;;2.67;;
73632;SDS011;61927;50.080;14.418;2022-08-21T12:03:12;4.85;;;2.97;;
73632;SDS011;61927;50.080;14.418;2022-08-21T12:05:44;6.13;;;2.63;;
73632;SDS011;61927;50.080;14.418;2022-08-21T12:11:43;7.50;;;2.90;;
73632;SDS011;61927;50.080;14.418;2022-08-21T12:14:10;4.22;;;2.45;;
73632;SDS011;61927;50.080;14.418;2022-08-21T12:16:40;9.45;;;2.58;;
73632;SDS011;61927;50.080;14.418;2022-08-21T12:21:48;8.65;;;3.13;;
73632;SDS011;61927;50.080;14.418;2022-08-21T12:24:19;4.97;;;2.33;;
73632;SDS011;61927;50.080;14.418;2022-08-21T12:26:59;4.97;;;3.10;;
73632;SDS011;61927;50.080;14.418;2022-08-21T12:29:43;4.57;;;2.50;;
73632;SDS011;61927;50.080;14.418;2022-08-21T12:34:42;9.68;;;3.45;;
73632;SDS011;61927;50.080;14.418;2022-08-21T12:39:48;7.88;;;2.75;;
73632;SDS011;61927;50.080;14.418;2022-08-21T12:42:20;5.38;;;2.92;;
73632;SDS011;61927;50.080;14.418;2022-08-21T12:44:55;4.32;;;2.38;;
73632;SDS011;61927;50.080;14.418;2022-08-21T12:47:36;5.57;;;3.05;;
73632;SDS011;61927;50.080;14.418;2022-08-21T12:50:16;7.78;;;2.78;;
73632;SDS011;61927;50.080;14.418;2022-08-21T12:56:01;4.72;;;2.40;;
73632;SDS011;61927;50.080;14.418;2022-08-21T12:58:28;7.07;;;2.72;;
73632;SDS011;61927;50.080;14.418;2022-08-21T13:00:56;2.42;;;2.05;;
73632;SDS011;61927;50.080;14.418;2022-08-21T13:03:27;9.18;;;2.30;;
73632;SDS011;61927;50.080;14.418;2022-08-21T13:05:54;4.72;;;1.98;;
73632;SDS011;61927;50.080;14.418;2022-08-21T13:08:21;4.70;;;2.28;;
73632;SDS011;61927;50.080;14.418;2022-08-21T13:10:55;8.15;;;2.40;;
73632;SDS011;61927;50.080;14.418;2022-08-21T13:13:24;6.53;;;3.78;;
73632;SDS011;61927;50.080;14.418;2022-08-21T13:15:56;7.18;;;2.55;;
73632;SDS011;61927;50.080;14.418;2022-08-21T13:18:28;8.18;;;2.50;;
73632;SDS011;61927;50.080;14.418;2022-08-21T13:23:40;4.47;;;2.25;;
73632;SDS011;61927;50.080;14.418;2022-08-21T13:26:19;7.60;;;2.30;;
73632;SDS011;61927;50.080;14.418;2022-08-21T13:28:47;7.30;;;2.00;;
73632;SDS011;61927;50.080;14.418;2022-08-21T13:31:20;5.22;;;2.15;;
73632;SDS011;61927;50.080;14.418;2022-08-21T13:33:52;6.05;;;2.80;;
73632;SDS011;61927;50.080;14.418;2022-08-21T13:36:26;4.30;;;2.17;;
73632;SDS011;61927;50.080;14.418;2022-08-21T13:38:55;8.55;;;2.72;;
73632;SDS011;61927;50.080;14.418;2022-08-21T13:41:23;5.00;;;2.45;;
73632;SDS011;61927;50.080;14.418;2022-08-21T13:43:57;5.90;;;2.70;;
73632;SDS011;61927;50.080;14.418;2022-08-21T13:46:24;7.18;;;2.92;;
73632;SDS011;61927;50.080;14.418;2022-08-21T13:48:52;5.93;;;2.53;;
73632;SDS011;61927;50.080;14.418;2022-08-21T13:51:19;5.38;;;2.80;;
73632;SDS011;61927;50.080;14.418;2022-08-21T13:53:46;5.38;;;2.53;;
73632;SDS011;61927;50.080;14.418;2022-08-21T14:03:59;3.85;;;2.25;;
73632;SDS011;61927;50.080;14.418;2022-08-21T14:06:32;5.75;;;2.45;;
73632;SDS011;61927;50.080;14.418;2022-08-21T14:09:01;4.03;;;2.63;;
73632;SDS011;61927;50.080;14.418;2022-08-21T14:11:34;5.50;;;2.45;;
73632;SDS011;61927;50.080;14.418;2022-08-21T14:14:06;6.15;;;2.45;;
73632;SDS011;61927;50.080;14.418;2022-08-21T14:16:59;6.35;;;2.80;;
73632;SDS011;61927;50.080;14.418;2022-08-21T14:19:28;4.30;;;2.50;;
73632;SDS011;61927;50.080;14.418;2022-08-21T14:26:06;8.60;;;2.65;;
73632;SDS011;61927;50.080;14.418;2022-08-21T14:28:42;8.07;;;2.70;;
73632;SDS011;61927;50.080;14.418;2022-08-21T14:31:13;2.83;;;2.25;;
73632;SDS011;61927;50.080;14.418;2022-08-21T14:33:44;5.82;;;2.55;;
73632;SDS011;61927;50.080;14.418;2022-08-21T14:36:10;5.38;;;2.50;;
73632;SDS011;61927;50.080;14.418;2022-08-21T14:38:37;7.32;;;2.70;;
73632;SDS011;61927;50.080;14.418;2022-08-21T14:41:15;8.57;;;2.70;;
73632;SDS011;61927;50.080;14.418;2022-08-21T14:43:44;9.43;;;2.50;;
73632;SDS011;61927;50.080;14.418;2022-08-21T14:46:12;8.82;;;2.80;;
73632;SDS011;61927;50.080;14.418;2022-08-21T14:48:48;6.15;;;2.80;;
73632;SDS011;61927;50.080;14.418;2022-08-21T14:51:14;6.35;;;2.85;;
73632;SDS011;61927;50.080;14.418;2022-08-21T14:53:40;5.53;;;2.75;;
73632;SDS011;61927;50.080;14.418;2022-08-21T14:56:06;6.13;;;2.88;;
73632;SDS011;61927;50.080;14.418;2022-08-21T14:58:33;10.13;;;3.10;;
73632;SDS011;61927;50.080;14.418;2022-08-21T15:01:01;4.80;;;2.22;;
73632;SDS011;61927;50.080;14.418;2022-08-21T15:03:29;6.80;;;2.47;;
73632;SDS011;61927;50.080;14.418;2022-08-21T15:05:56;4.60;;;2.65;;
73632;SDS011;61927;50.080;14.418;2022-08-21T15:08:22;4.47;;;2.55;;
73632;SDS011;61927;50.080;14.418;2022-08-21T15:10:47;5.43;;;2.22;;
73632;SDS011;61927;50.080;14.418;2022-08-21T15:13:13;6.40;;;2.45;;
73632;SDS011;61927;50.080;14.418;2022-08-21T15:15:40;4.40;;;2.17;;
73632;SDS011;61927;50.080;14.418;2022-08-21T15:18:08;7.07;;;2.40;;
73632;SDS011;61927;50.080;14.418;2022-08-21T15:20:34;2.65;;;2.03;;
73632;SDS011;61927;50.080;14.418;2022-08-21T15:23:00;5.68;;;2.22;;
73632;SDS011;61927;50.080;14.418;2022-08-21T15:25:26;8.43;;;1.98;;
73632;SDS011;61927;50.080;14.418;2022-08-21T15:27:52;6.28;;;2.58;;
73632;SDS011;61927;50.080;14.418;2022-08-21T15:30:18;6.75;;;2.42;;
73632;SDS011;61927;50.080;14.418;2022-08-21T15:32:44;7.05;;;2.70;;
73632;SDS011;61927;50.080;14.418;2022-08-21T15:35:09;8.55;;;2.35;;
73632;SDS011;61927;50.080;14.418;2022-08-21T15:37:35;17.63;;;3.05;;
73632;SDS011;61927;50.080;14.418;2022-08-21T15:40:01;4.22;;;1.90;;
73632;SDS011;61927;50.080;14.418;2022-08-21T15:42:27;4.97;;;2.50;;
73632;SDS011;61927;50.080;14.418;2022-08-21T15:44:54;5.50;;;1.83;;
73632;SDS011;61927;50.080;14.418;2022-08-21T15:47:22;5.00;;;1.92;;
73632;SDS011;61927;50.080;14.418;2022-08-21T15:49:53;3.83;;;2.00;;
73632;SDS011;61927;50.080;14.418;2022-08-21T15:52:20;8.00;;;2.38;;
73632;SDS011;61927;50.080;14.418;2022-08-21T15:54:46;3.40;;;2.25;;
73632;SDS011;61927;50.080;14.418;2022-08-21T15:57:13;8.70;;;2.00;;
73632;SDS011;61927;50.080;14.418;2022-08-21T15:59:45;8.57;;;2.65;;
73632;SDS011;61927;50.080;14.418;2022-08-21T16:02:22;3.95;;;2.00;;
73632;SDS011;61927;50.080;14.418;2022-08-21T16:04:50;7.78;;;2.33;;
73632;SDS011;61927;50.080;14.418;2022-08-21T16:07:16;7.30;;;2.30;;
73632;SDS011;61927;50.080;14.418;2022-08-21T16:09:42;9.07;;;2.38;;
73632;SDS011;61927;50.080;14.418;2022-08-21T16:12:08;4.88;;;2.13;;
73632;SDS011;61927;50.080;14.418;2022-08-21T16:14:39;6.35;;;1.95;;
73632;SDS011;61927;50.080;14.418;2022-08-21T16:17:06;4.55;;;2.17;;
73632;SDS011;61927;50.080;14.418;2022-08-21T16:19:32;2.72;;;1.77;;
73632;SDS011;61927;50.080;14.418;2022-08-21T16:21:59;14.82;;;4.55;;